Time;durP1;ratioP1;P1;durP2;ratioP2;P2;SDS_P1;SDS_P2;PMS_P1;PMS_P2;Temp;Humidity;BMP_temperature;BMP_pressure;BME280_temperature;BME280_humidity;BME280_pressure;Samples;Min_cycle;Max_cycle;Signal;HPM_P1;HPM_P2
2021/11/05 00:01:16;;;;;;;;;3.67;3.00;;;;;-147.17;100.00;49889.31;5055041;28;51126;-66
2021/11/05 00:03:42;;;;;;;;;5.00;4.33;;;;;-147.17;100.00;49867.66;5074251;28;52271;-66
2021/11/05 00:06:07;;;;;;;;;2.00;2.00;;;;;-147.17;100.00;49887.34;5074709;28;51603;-67
2021/11/05 00:08:33;;;;;;;;;4.00;4.00;;;;;-147.17;100.00;49861.75;5042888;28;51212;-67
2021/11/05 00:10:58;;;;;;;;;3.33;3.33;;;;;-147.17;100.00;49869.63;5065021;28;51209;-69
2021/11/05 00:13:23;;;;;;;;;3.00;3.00;;;;;-147.17;100.00;49838.13;5057473;28;51023;-67
2021/11/05 00:15:49;;;;;;;;;4.00;4.00;;;;;-147.17;100.00;49863.72;5072396;28;51095;-66
2021/11/05 00:18:14;;;;;;;;;5.00;5.00;;;;;-147.17;100.00;49895.22;5073438;28;51439;-66
2021/11/05 00:20:39;;;;;;;;;3.00;3.00;;;;;-147.17;100.00;49863.72;5070083;28;50883;-67
2021/11/05 00:23:05;;;;;;;;;2.50;2.50;;;;;-147.17;100.00;49879.47;5062643;28;50976;-66
2021/11/05 00:25:30;;;;;;;;;3.00;3.00;;;;;-147.17;100.00;49877.50;5065872;28;50908;-66
2021/11/05 00:27:56;;;;;;;;;3.00;3.00;;;;;-147.17;100.00;49879.47;5055481;28;51214;-66
2021/11/05 00:30:21;;;;;;;;;2.00;2.00;;;;;-147.17;100.00;49891.28;5067349;28;51143;-66
2021/11/05 00:32:47;;;;;;;;;2.67;2.67;;;;;-147.17;100.00;49899.16;5048374;28;52307;-65
2021/11/05 00:35:14;;;;;;;;;4.00;4.00;;;;;-147.17;100.00;49875.53;5073606;28;50929;-67
2021/11/05 00:37:40;;;;;;;;;4.00;4.00;;;;;-147.17;100.00;49875.53;5073798;28;51023;-67
2021/11/05 00:40:08;;;;;;;;;3.75;3.75;;;;;-147.17;100.00;49891.28;5053953;28;51266;-66
2021/11/05 00:42:34;;;;;;;;;4.33;4.00;;;;;-147.17;100.00;49881.44;5061761;28;51220;-65
2021/11/05 00:44:59;;;;;;;;;2.00;2.00;;;;;-147.17;100.00;49885.38;5073234;28;51122;-66
2021/11/05 00:47:24;;;;;;;;;3.00;2.00;;;;;-147.17;100.00;49853.88;5073693;28;51051;-65
2021/11/05 00:49:50;;;;;;;;;3.00;3.00;;;;;-147.17;100.00;49891.28;5073125;28;50889;-66
2021/11/05 00:52:15;;;;;;;;;3.00;3.00;;;;;-147.17;100.00;49895.22;5073409;28;51940;-66
2021/11/05 00:54:40;;;;;;;;;2.00;2.00;;;;;-147.17;100.00;49871.59;5054885;28;51054;-67
2021/11/05 00:57:06;;;;;;;;;5.00;4.00;;;;;-147.17;100.00;49891.28;5073076;28;50898;-66
2021/11/05 00:59:31;;;;;;;;;5.67;3.00;;;;;-147.17;100.00;49887.34;5072103;28;51371;-66
2021/11/05 01:01:57;;;;;;;;;4.00;4.00;;;;;-147.17;100.00;49907.03;5061821;28;51893;-66
2021/11/05 01:04:22;;;;;;;;;5.00;5.00;;;;;-147.17;100.00;49881.44;5055609;28;50983;-66
2021/11/05 01:06:47;;;;;;;;;8.00;7.00;;;;;-147.17;100.00;49891.28;5074020;28;51354;-66
2021/11/05 01:09:13;;;;;;;;;4.00;4.00;;;;;-147.17;100.00;49861.75;5061246;28;51233;-66
2021/11/05 01:11:38;;;;;;;;;5.67;5.00;;;;;-147.17;100.00;49885.38;5054396;28;53688;-66
2021/11/05 01:14:04;;;;;;;;;5.00;4.33;;;;;-147.17;100.00;49867.66;5073523;28;50999;-67
2021/11/05 01:16:30;;;;;;;;;4.67;4.67;;;;;-147.17;100.00;49857.81;5073146;28;51090;-67
2021/11/05 01:18:55;;;;;;;;;5.00;5.00;;;;;-147.17;100.00;49859.78;5073481;28;51032;-66
2021/11/05 01:21:21;;;;;;;;;5.00;4.00;;;;;-147.17;100.00;49883.41;5059183;28;51438;-67
2021/11/05 01:23:46;;;;;;;;;4.00;3.33;;;;;-147.17;100.00;49871.59;5066117;28;50960;-67
2021/11/05 01:26:12;;;;;;;;;5.67;4.00;;;;;-147.17;100.00;49881.44;5039491;28;51016;-66
2021/11/05 01:28:38;;;;;;;;;4.00;4.00;;;;;-147.17;100.00;49869.63;5051830;28;51379;-66
2021/11/05 01:31:03;;;;;;;;;5.00;3.67;;;;;-147.17;100.00;49867.66;5072097;28;52231;-66
2021/11/05 01:33:29;;;;;;;;;5.67;5.00;;;;;-147.17;100.00;49857.81;5072810;28;51045;-67
2021/11/05 01:35:55;;;;;;;;;4.00;3.00;;;;;-147.17;100.00;49861.75;5073109;28;51103;-66
2021/11/05 01:38:20;;;;;;;;;3.00;3.00;;;;;-147.17;100.00;49871.59;5055084;28;51056;-67
2021/11/05 01:40:46;;;;;;;;;4.00;4.00;;;;;-147.17;100.00;49895.22;5055678;28;52037;-67
2021/11/05 01:43:13;;;;;;;;;5.33;4.33;;;;;-147.17;100.00;49903.09;5072992;28;50930;-66
2021/11/05 01:45:40;;;;;;;;;5.67;4.33;;;;;-147.17;100.00;49926.69;5065206;28;51289;-66
2021/11/05 01:48:06;;;;;;;;;7.00;4.67;;;;;-147.17;100.00;49855.84;5079544;28;51256;-66
2021/11/05 01:50:31;;;;;;;;;4.00;3.33;;;;;-147.17;100.00;49899.16;5077882;28;51860;-66
2021/11/05 01:52:57;;;;;;;;;4.67;3.00;;;;;-147.17;100.00;49885.38;5078495;28;51124;-66
2021/11/05 01:55:23;;;;;;;;;3.33;3.33;;;;;-147.17;100.00;49909.00;5079176;28;51247;-66
2021/11/05 01:57:49;;;;;;;;;4.00;4.00;;;;;-147.17;100.00;49883.41;5079606;28;51078;-66
2021/11/05 02:00:19;;;;;;;;;2.00;2.00;;;;;-147.17;100.00;49883.41;5078232;28;52181;-66
2021/11/05 02:02:46;;;;;;;;;4.00;3.67;;;;;-147.17;100.00;49867.66;5066461;28;51082;-66
2021/11/05 02:05:13;;;;;;;;;7.00;7.00;;;;;-147.17;100.00;49883.41;5077267;28;51023;-66
2021/11/05 02:07:44;;;;;;;;;4.00;4.00;;;;;-147.17;100.00;49881.44;5061343;28;51022;-70
2021/11/05 02:10:09;;;;;;;;;5.00;4.00;;;;;-147.17;100.00;49851.91;5058936;28;52057;-66
2021/11/05 02:12:35;;;;;;;;;3.00;3.00;;;;;-147.17;100.00;49867.66;5080059;28;51149;-66
2021/11/05 02:15:01;;;;;;;;;4.00;3.00;;;;;-147.17;100.00;49910.97;5061517;28;51051;-65
2021/11/05 02:17:27;;;;;;;;;4.67;4.00;;;;;-147.17;100.00;49891.28;5079793;28;51461;-66
2021/11/05 02:19:56;;;;;;;;;3.33;2.67;;;;;-147.17;100.00;49875.53;5078945;28;51140;-66
2021/11/05 02:22:22;;;;;;;;;6.33;5.00;;;;;-147.17;100.00;49869.63;5079627;28;50971;-66
2021/11/05 02:24:47;;;;;;;;;5.00;4.00;;;;;-147.17;100.00;49905.06;5078991;28;50896;-66
2021/11/05 02:27:12;;;;;;;;;7.00;4.67;;;;;-147.17;100.00;49855.84;5078096;28;51342;-66
2021/11/05 02:29:38;;;;;;;;;3.67;3.67;;;;;-147.17;100.00;49887.34;5040223;28;53331;-66
2021/11/05 02:32:04;;;;;;;;;13.75;12.75;;;;;-147.17;100.00;49840.09;5055550;28;50924;-66
2021/11/05 02:34:31;;;;;;;;;4.33;4.33;;;;;-147.17;100.00;49849.94;5079107;28;51000;-66
2021/11/05 02:36:58;;;;;;;;;3.00;3.00;;;;;-147.17;100.00;49875.53;5078348;28;51217;-66
2021/11/05 02:39:23;;;;;;;;;5.33;4.33;;;;;-147.17;100.00;49889.31;5067054;28;53804;-66
2021/11/05 02:41:50;;;;;;;;;2.00;2.00;;;;;-147.17;100.00;49871.59;5078555;28;50986;-65
2021/11/05 02:44:16;;;;;;;;;3.33;3.00;;;;;-147.17;100.00;49889.31;5079062;28;50857;-65
2021/11/05 02:46:42;;;;;;;;;7.00;4.00;;;;;-147.17;100.00;49897.19;5060749;28;50955;-66
2021/11/05 02:49:08;;;;;;;;;4.33;4.33;;;;;-147.17;100.00;49881.44;5077818;28;52038;-66
2021/11/05 02:51:35;;;;;;;;;4.00;3.00;;;;;-147.17;100.00;49895.22;5057414;28;51059;-66
2021/11/05 02:54:01;;;;;;;;;4.00;4.00;;;;;-147.17;100.00;49887.34;5057119;28;51146;-67
2021/11/05 02:56:27;;;;;;;;;4.00;3.00;;;;;-147.17;100.00;49899.16;5057160;28;51082;-66
2021/11/05 02:58:52;;;;;;;;;4.00;3.67;;;;;-147.17;100.00;49930.63;5074126;28;51597;-66
2021/11/05 03:01:19;;;;;;;;;1.00;1.00;;;;;-147.17;100.00;49891.28;5072497;28;51207;-67
2021/11/05 03:03:45;;;;;;;;;5.00;3.67;;;;;-147.17;100.00;49909.00;5071995;28;51003;-66
2021/11/05 03:06:11;;;;;;;;;6.33;6.33;;;;;-147.17;100.00;49875.53;5057213;28;51425;-66
2021/11/05 03:08:37;;;;;;;;;7.67;5.67;;;;;-147.17;100.00;49879.47;5074128;28;52165;-67
2021/11/05 03:11:02;;;;;;;;;3.67;3.00;;;;;-147.17;100.00;49901.13;5074844;28;50942;-67
2021/11/05 03:13:28;;;;;;;;;3.00;2.00;;;;;-147.17;100.00;49883.41;5057770;28;51221;-66
2021/11/05 03:15:53;;;;;;;;;3.00;3.00;;;;;-147.17;100.00;49895.22;5075341;28;51003;-67
2021/11/05 03:18:19;;;;;;;;;3.33;3.00;;;;;-147.17;100.00;49903.09;5056764;28;51870;-66
2021/11/05 03:20:46;;;;;;;;;3.00;3.00;;;;;-147.17;100.00;49863.72;5074382;28;50914;-67
2021/11/05 03:23:13;;;;;;;;;4.00;3.00;;;;;-147.17;100.00;49877.50;5073431;28;51186;-66
2021/11/05 03:25:39;;;;;;;;;2.67;2.67;;;;;-147.17;100.00;49871.59;5065970;28;51105;-66
2021/11/05 03:28:04;;;;;;;;;3.00;3.00;;;;;-147.17;100.00;49875.53;5073469;28;51167;-66
2021/11/05 03:30:30;;;;;;;;;3.00;3.00;;;;;-147.17;100.00;49879.47;5074774;28;51029;-66
2021/11/05 03:32:55;;;;;;;;;4.00;3.33;;;;;-147.17;100.00;49903.09;5074139;28;51006;-66
2021/11/05 03:35:20;;;;;;;;;3.33;3.00;;;;;-147.17;100.00;49910.97;5075360;28;51196;-67
2021/11/05 03:37:46;;;;;;;;;4.00;3.00;;;;;-147.17;100.00;49926.69;5074142;28;51092;-66
2021/11/05 03:40:14;;;;;;;;;3.00;2.67;;;;;-147.17;100.00;49899.16;5074768;28;50889;-64
2021/11/05 03:42:40;;;;;;;;;4.67;3.67;;;;;-147.17;100.00;49903.09;5039854;28;51181;-66
2021/11/05 03:45:06;;;;;;;;;3.67;2.67;;;;;-147.17;100.00;49903.09;5074791;28;51115;-66
2021/11/05 03:47:32;;;;;;;;;3.00;3.00;;;;;-147.17;100.00;49924.72;5055451;28;51065;-66
2021/11/05 03:49:58;;;;;;;;;4.67;3.33;;;;;-147.17;100.00;49883.41;5074574;28;51235;-66
2021/11/05 03:52:24;;;;;;;;;1.00;1.00;;;;;-147.17;100.00;49920.81;5074096;28;51186;-66
2021/11/05 03:54:49;;;;;;;;;3.67;3.67;;;;;-147.17;100.00;49891.28;5074167;28;51007;-66
2021/11/05 03:57:15;;;;;;;;;2.67;2.67;;;;;-147.17;100.00;49891.28;5073163;28;51922;-66
2021/11/05 03:59:40;;;;;;;;;3.00;3.00;;;;;-147.17;100.00;49877.50;5074576;28;51025;-66
2021/11/05 04:02:05;;;;;;;;;2.67;2.00;;;;;-147.17;100.00;49887.34;5064136;28;51069;-65
2021/11/05 04:04:31;;;;;;;;;2.67;2.33;;;;;-147.17;100.00;49887.34;5056585;28;50865;-66
2021/11/05 04:06:56;;;;;;;;;4.00;4.00;;;;;-147.17;100.00;49930.63;5055087;28;53612;-66
2021/11/05 04:09:22;;;;;;;;;3.00;2.33;;;;;-147.17;100.00;49916.88;5074257;28;51014;-66
2021/11/05 04:11:47;;;;;;;;;2.67;2.67;;;;;-147.17;100.00;49907.03;5074995;28;50998;-66
2021/11/05 04:14:13;;;;;;;;;0.00;0.00;;;;;-147.17;100.00;49891.28;5074824;28;51289;-66
2021/11/05 04:16:38;;;;;;;;;2.67;2.00;;;;;-147.17;100.00;49910.97;5068249;28;51179;-65
2021/11/05 04:19:04;;;;;;;;;8.00;3.00;;;;;-147.17;100.00;49909.00;5065462;28;50961;-65
2021/11/05 04:21:29;;;;;;;;;2.67;2.00;;;;;-147.17;100.00;49905.06;5073999;28;50996;-66
2021/11/05 04:23:55;;;;;;;;;3.33;3.33;;;;;-147.17;100.00;49889.31;5074257;28;51302;-66
2021/11/05 04:26:20;;;;;;;;;2.00;2.00;;;;;-147.17;100.00;49912.94;5054994;28;52834;-66
2021/11/05 04:28:45;;;;;;;;;2.00;2.00;;;;;-147.17;100.00;49905.06;5059834;28;51105;-66
2021/11/05 04:31:11;;;;;;;;;2.67;2.00;;;;;-147.17;100.00;49918.84;5060197;28;51074;-66
2021/11/05 04:33:37;;;;;;;;;2.67;2.00;;;;;-147.17;100.00;49877.50;5074110;28;50912;-66
2021/11/05 04:36:03;;;;;;;;;2.00;1.33;;;;;-147.17;100.00;49918.84;5072842;28;51933;-66
2021/11/05 04:38:29;;;;;;;;;4.33;3.33;;;;;-147.17;100.00;49922.78;5073899;28;51010;-65
2021/11/05 04:40:55;;;;;;;;;3.33;2.67;;;;;-147.17;100.00;49950.31;5073670;28;51268;-66
2021/11/05 04:43:20;;;;;;;;;3.00;3.00;;;;;-147.17;100.00;49891.28;5074075;28;51279;-65
2021/11/05 04:45:46;;;;;;;;;4.00;3.00;;;;;-147.17;100.00;49903.09;5059600;28;51118;-65
2021/11/05 04:48:11;;;;;;;;;3.67;2.00;;;;;-147.17;100.00;49903.09;5073763;28;51166;-65
2021/11/05 04:50:37;;;;;;;;;3.00;2.00;;;;;-147.17;100.00;49881.44;5073955;28;51285;-66
2021/11/05 04:53:03;;;;;;;;;2.67;2.67;;;;;-147.17;100.00;49922.78;5074898;28;50963;-66
2021/11/05 04:55:29;;;;;;;;;2.33;2.00;;;;;-147.17;100.00;49944.41;5072805;28;52372;-66
2021/11/05 04:57:55;;;;;;;;;2.33;2.00;;;;;-147.17;100.00;49916.88;5073864;28;51531;-66
2021/11/05 05:00:22;;;;;;;;;3.33;2.67;;;;;-147.17;100.00;49914.91;5073639;28;51034;-66
2021/11/05 05:02:48;;;;;;;;;3.00;2.00;;;;;-147.17;100.00;49895.22;5062914;28;51108;-65
2021/11/05 05:05:14;;;;;;;;;3.33;2.67;;;;;-147.17;100.00;49926.69;5071679;28;51732;-66
2021/11/05 05:07:40;;;;;;;;;2.00;2.00;;;;;-147.17;100.00;49909.00;5073780;28;51386;-66
2021/11/05 05:10:06;;;;;;;;;4.67;4.00;;;;;-147.17;100.00;49970.00;5072974;28;51020;-66
2021/11/05 05:12:32;;;;;;;;;1.67;1.67;;;;;-147.17;100.00;49920.81;5073331;28;50932;-66
2021/11/05 05:14:57;;;;;;;;;2.00;2.00;;;;;-147.17;100.00;49914.91;5071448;28;51240;-65
2021/11/05 05:17:22;;;;;;;;;2.00;1.67;;;;;-147.17;100.00;49920.81;5073094;28;50965;-66
2021/11/05 05:19:48;;;;;;;;;3.00;3.00;;;;;-147.17;100.00;49928.66;5073217;28;51385;-65
2021/11/05 05:22:13;;;;;;;;;3.00;3.00;;;;;-147.17;100.00;49916.88;5073251;28;51273;-66
2021/11/05 05:24:39;;;;;;;;;2.00;2.00;;;;;-147.17;100.00;49922.78;5060495;28;51971;-66
2021/11/05 05:27:04;;;;;;;;;2.00;1.67;;;;;-147.17;100.00;49912.94;5059275;28;51175;-65
2021/11/05 05:29:30;;;;;;;;;3.67;3.67;;;;;-147.17;100.00;49938.50;5073270;28;51091;-65
2021/11/05 05:31:55;;;;;;;;;2.67;2.00;;;;;-147.17;100.00;49930.63;5072921;28;51054;-66
2021/11/05 05:34:21;;;;;;;;;1.33;1.00;;;;;-147.17;100.00;49946.38;5072107;28;52091;-65
2021/11/05 05:36:46;;;;;;;;;2.00;2.00;;;;;-147.17;100.00;49934.56;5072858;28;51159;-66
2021/11/05 05:39:11;;;;;;;;;3.33;2.00;;;;;-147.17;100.00;49922.78;5073224;28;50923;-66
2021/11/05 05:41:37;;;;;;;;;2.67;2.67;;;;;-147.17;100.00;49934.56;5072803;28;51383;-65
2021/11/05 05:44:03;;;;;;;;;1.00;1.00;;;;;-147.17;100.00;49956.22;5072047;28;51900;-65
2021/11/05 05:46:29;;;;;;;;;2.00;2.00;;;;;-147.17;100.00;49930.63;5054742;28;51023;-65
2021/11/05 05:48:54;;;;;;;;;3.00;3.00;;;;;-147.17;100.00;49938.50;5072841;28;51018;-66
2021/11/05 05:51:19;;;;;;;;;2.00;2.00;;;;;-147.17;100.00;49958.19;5072970;28;51233;-66
2021/11/05 05:53:45;;;;;;;;;4.67;3.00;;;;;-147.17;100.00;49918.84;5050746;28;52656;-66
2021/11/05 05:56:10;;;;;;;;;2.00;1.00;;;;;-147.17;100.00;49946.38;5064104;28;50979;-67
2021/11/05 05:58:36;;;;;;;;;3.33;2.67;;;;;-147.17;100.00;49938.50;5066979;28;50932;-66
2021/11/05 06:01:01;;;;;;;;;2.00;2.00;;;;;-147.17;100.00;49914.91;5072343;28;51360;-66
2021/11/05 06:03:26;;;;;;;;;3.00;2.67;;;;;-147.17;100.00;49914.91;5047148;28;53662;-65
2021/11/05 06:05:52;;;;;;;;;2.33;2.00;;;;;-147.17;100.00;49912.94;5061041;28;50903;-65
2021/11/05 06:08:17;;;;;;;;;1.00;1.00;;;;;-147.17;100.00;49940.47;5073178;28;51118;-65
2021/11/05 06:10:42;;;;;;;;;4.67;2.67;;;;;-147.17;100.00;49918.84;5073033;28;51268;-66
2021/11/05 06:13:08;;;;;;;;;2.00;2.00;;;;;-147.17;100.00;49934.56;5055215;28;51132;-65
2021/11/05 06:15:33;;;;;;;;;2.00;2.00;;;;;-147.17;100.00;49936.53;5059341;28;50975;-65
2021/11/05 06:17:59;;;;;;;;;2.00;2.00;;;;;-147.17;100.00;49948.34;5072527;28;50929;-65
2021/11/05 06:20:25;;;;;;;;;2.00;2.00;;;;;-147.17;100.00;49899.16;5072391;28;51228;-66
2021/11/05 06:22:50;;;;;;;;;2.00;2.00;;;;;-147.17;100.00;49920.81;5072311;28;51980;-66
2021/11/05 06:25:16;;;;;;;;;2.67;2.00;;;;;-147.17;100.00;49938.50;5071414;28;50973;-65
2021/11/05 06:27:42;;;;;;;;;3.00;2.00;;;;;-147.17;100.00;49942.44;5076109;28;51125;-67
2021/11/05 06:30:08;;;;;;;;;3.00;2.33;;;;;-147.17;100.00;49910.97;5075877;28;51291;-66
2021/11/05 06:32:34;;;;;;;;;4.00;4.00;;;;;-147.17;100.00;49926.69;5075399;28;52300;-66
2021/11/05 06:34:59;;;;;;;;;3.33;2.00;;;;;-147.17;100.00;49938.50;5074194;28;51173;-66
2021/11/05 06:37:25;;;;;;;;;2.33;2.00;;;;;-147.17;100.00;49914.91;5075929;28;51090;-66
2021/11/05 06:39:50;;;;;;;;;4.00;4.00;;;;;-147.17;100.00;49946.38;5075689;28;51313;-67
2021/11/05 06:42:20;;;;;;;;;4.33;4.00;;;;;-147.17;100.00;49922.78;5052347;28;51983;-66
2021/11/05 06:44:47;;;;;;;;;2.00;2.00;;;;;-147.17;100.00;49958.19;5067530;28;51087;-66
2021/11/05 06:47:13;;;;;;;;;2.67;2.00;;;;;-147.17;100.00;49926.69;5057333;28;51193;-66
2021/11/05 06:49:38;;;;;;;;;2.00;2.00;;;;;-147.17;100.00;49936.53;5075141;28;51356;-66
2021/11/05 06:52:04;;;;;;;;;3.33;3.00;;;;;-147.17;100.00;49907.03;5061640;28;51886;-65
2021/11/05 06:54:29;;;;;;;;;3.00;2.00;;;;;-147.17;100.00;49946.38;5039630;28;51073;-66
2021/11/05 06:56:55;;;;;;;;;4.00;3.00;;;;;-147.17;100.00;49926.69;5074801;28;51049;-66
2021/11/05 06:59:20;;;;;;;;;2.67;2.67;;;;;-147.17;100.00;49920.81;5074973;28;51329;-66
2021/11/05 07:01:46;;;;;;;;;2.00;2.00;;;;;-147.17;100.00;49910.97;5070195;28;51496;-66
2021/11/05 07:04:11;;;;;;;;;5.00;4.00;;;;;-147.17;100.00;49962.13;5057005;28;51144;-65
2021/11/05 07:06:44;;;;;;;;;1.00;1.00;;;;;-147.17;100.00;49924.72;5075342;28;51138;-66
2021/11/05 07:09:10;;;;;;;;;1.00;1.00;;;;;-147.17;100.00;49956.22;5073536;28;50939;-66
2021/11/05 07:11:36;;;;;;;;;3.67;2.67;;;;;-147.17;100.00;49956.22;5065178;28;51878;-67
2021/11/05 07:14:01;;;;;;;;;1.33;1.33;;;;;-147.17;100.00;49922.78;5075666;28;51414;-65
2021/11/05 07:16:27;;;;;;;;;2.00;2.00;;;;;-147.17;100.00;49891.28;5056550;28;51014;-66
2021/11/05 07:18:52;;;;;;;;;2.33;2.33;;;;;-147.17;100.00;49912.94;5075297;28;51081;-66
2021/11/05 07:21:18;;;;;;;;;4.00;3.00;;;;;-147.17;100.00;49910.97;5060704;28;51811;-65
2021/11/05 07:23:43;;;;;;;;;2.67;2.67;;;;;-147.17;100.00;49865.69;5070277;28;51011;-66
2021/11/05 07:26:12;;;;;;;;;2.75;2.75;;;;;-147.17;100.00;49926.69;5056104;28;51177;-65
2021/11/05 07:28:37;;;;;;;;;3.00;3.00;;;;;-147.17;100.00;49934.56;5074683;28;51210;-64
2021/11/05 07:31:03;;;;;;;;;2.33;2.33;;;;;-147.17;100.00;49946.38;5074244;28;51190;-65
2021/11/05 07:33:29;;;;;;;;;3.00;2.33;;;;;-147.17;100.00;49889.31;5074689;28;51058;-65
2021/11/05 07:35:55;;;;;;;;;3.00;1.67;;;;;-147.17;100.00;49948.34;5074472;28;51249;-66
2021/11/05 07:38:20;;;;;;;;;2.33;2.33;;;;;-147.17;100.00;49914.91;5069422;28;51150;-66
2021/11/05 07:40:46;;;;;;;;;1.00;1.00;;;;;-147.17;100.00;49934.56;5054597;28;51211;-66
2021/11/05 07:43:11;;;;;;;;;3.33;3.33;;;;;-147.17;100.00;49985.75;5074239;28;51231;-66
2021/11/05 07:45:37;;;;;;;;;3.33;2.67;;;;;-147.17;100.00;49944.41;5074163;28;50974;-65
2021/11/05 07:48:03;;;;;;;;;5.00;3.00;;;;;-147.17;100.00;49971.97;5074005;28;51418;-67
2021/11/05 07:50:33;;;;;;;;;3.00;2.00;;;;;-147.17;100.00;49936.53;5038829;28;51694;-66
2021/11/05 07:52:59;;;;;;;;;5.00;4.00;;;;;-147.17;100.00;49954.25;5074672;28;51065;-67
2021/11/05 07:55:25;;;;;;;;;4.00;4.00;;;;;-147.17;100.00;49912.94;5073694;28;51261;-66
2021/11/05 07:57:51;;;;;;;;;3.00;3.00;;;;;-147.17;100.00;49922.78;5068236;28;50968;-65
2021/11/05 08:00:16;;;;;;;;;9.00;8.00;;;;;-147.17;100.00;49928.66;5056439;28;51061;-66
2021/11/05 08:02:43;;;;;;;;;3.33;3.33;;;;;-147.17;100.00;49930.63;5050180;28;51087;-66
2021/11/05 08:05:09;;;;;;;;;3.00;2.67;;;;;-147.17;100.00;49954.25;5074029;28;51275;-66
2021/11/05 08:07:35;;;;;;;;;7.00;5.00;;;;;-147.17;100.00;49960.16;5074348;28;51042;-66
2021/11/05 08:10:00;;;;;;;;;4.00;4.00;;;;;-147.17;100.00;49938.50;5055321;28;51955;-65
2021/11/05 08:12:26;;;;;;;;;3.00;3.00;;;;;-147.17;100.00;49938.50;5075567;28;51108;-66
2021/11/05 08:14:51;;;;;;;;;4.00;4.00;;;;;-147.17;100.00;49958.19;5074873;28;51435;-65
2021/11/05 08:17:16;;;;;;;;;2.00;2.00;;;;;-147.17;100.00;49962.13;5073994;28;51224;-66
2021/11/05 08:19:42;;;;;;;;;2.33;2.33;;;;;-147.17;100.00;49964.09;5047339;28;54279;-65
2021/11/05 08:22:07;;;;;;;;;5.00;4.00;;;;;-147.17;100.00;49973.94;5049911;28;51113;-67
2021/11/05 08:24:33;;;;;;;;;3.67;3.33;;;;;-147.17;100.00;49940.47;5073281;28;51054;-68
2021/11/05 08:26:58;;;;;;;;;8.00;4.33;;;;;-147.17;100.00;49946.38;5073341;28;51370;-66
2021/11/05 08:29:24;;;;;;;;;3.33;2.33;;;;;-147.17;100.00;49946.38;5072773;28;52218;-66
2021/11/05 08:31:50;;;;;;;;;3.33;3.33;;;;;-147.17;100.00;49944.41;5073560;28;51154;-67
2021/11/05 08:34:15;;;;;;;;;4.00;3.33;;;;;-147.17;100.00;49930.63;5073408;28;51004;-65
2021/11/05 08:36:41;;;;;;;;;3.00;3.00;;;;;-147.17;100.00;49962.13;5073729;28;51179;-66
2021/11/05 08:39:07;;;;;;;;;4.00;3.00;;;;;-147.17;100.00;49950.31;5072581;28;51110;-66
2021/11/05 08:41:34;;;;;;;;;3.00;3.00;;;;;-147.17;100.00;49954.25;5041425;28;51043;-66
2021/11/05 08:44:00;;;;;;;;;6.33;5.67;;;;;-147.17;100.00;49960.16;5073684;28;50904;-65
2021/11/05 08:46:28;;;;;;;;;6.00;5.33;;;;;-147.17;100.00;49954.25;5073547;28;51093;-66
2021/11/05 08:49:00;;;;;;;;;5.33;4.33;;;;;-147.17;100.00;49914.91;5071091;28;51197;-65
2021/11/05 08:51:28;;;;;;;;;6.33;6.00;;;;;-147.17;100.00;49889.31;5073442;28;51129;-65
2021/11/05 08:53:54;;;;;;;;;5.33;4.33;;;;;-147.17;100.00;49936.53;5072869;28;51110;-66
2021/11/05 08:56:20;;;;;;;;;8.00;6.00;;;;;-147.17;100.00;49942.44;5073136;28;51209;-65
2021/11/05 08:58:47;;;;;;;;;4.67;4.67;;;;;-147.17;100.00;49940.47;5071933;28;51206;-66
2021/11/05 09:01:13;;;;;;;;;4.00;3.00;;;;;-147.17;100.00;49946.38;5060956;28;50906;-66
2021/11/05 09:03:39;;;;;;;;;6.00;5.33;;;;;-147.17;100.00;49926.69;5073372;28;50966;-66
2021/11/05 09:06:05;;;;;;;;;5.33;5.00;;;;;-147.17;100.00;49942.44;5072839;28;50972;-65
2021/11/05 09:08:32;;;;;;;;;4.00;4.00;;;;;-147.17;100.00;49936.53;5054913;28;51616;-66
2021/11/05 09:11:00;;;;;;;;;4.00;3.67;;;;;-147.17;100.00;49934.56;5071710;28;51008;-66
2021/11/05 09:13:28;;;;;;;;;5.00;4.00;;;;;-147.17;100.00;49946.38;5054623;28;51125;-66
2021/11/05 09:15:53;;;;;;;;;4.00;4.00;;;;;-147.17;100.00;49942.44;5073298;28;50952;-66
2021/11/05 09:18:19;;;;;;;;;5.00;4.00;;;;;-147.17;100.00;49946.38;5054635;28;52429;-66
2021/11/05 09:20:45;;;;;;;;;4.00;4.00;;;;;-147.17;100.00;49960.16;5072284;28;51141;-66
2021/11/05 09:23:10;;;;;;;;;8.00;6.00;;;;;-147.17;100.00;49968.03;5073569;28;50975;-66
2021/11/05 09:25:36;;;;;;;;;5.67;5.00;;;;;-147.17;100.00;49977.88;5039997;28;51440;-66
2021/11/05 09:28:02;;;;;;;;;6.67;5.67;;;;;-147.17;100.00;49973.94;5072512;28;51976;-66
2021/11/05 09:30:29;;;;;;;;;6.67;5.33;;;;;-147.17;100.00;49968.03;5071745;28;51020;-66
2021/11/05 09:32:55;;;;;;;;;5.67;5.00;;;;;-147.17;100.00;49936.53;5072139;28;51306;-66
2021/11/05 09:35:22;;;;;;;;;6.00;5.33;;;;;-147.17;100.00;49940.47;5072263;28;51348;-68
2021/11/05 09:37:49;;;;;;;;;6.00;6.00;;;;;-147.17;100.00;49934.56;5071838;28;50875;-66
2021/11/05 09:40:15;;;;;;;;;4.33;4.00;;;;;-147.17;100.00;49964.09;5061653;28;51132;-66
2021/11/05 09:42:43;;;;;;;;;4.67;4.67;;;;;-147.17;100.00;49934.56;5056632;28;51032;-65
2021/11/05 09:45:10;;;;;;;;;5.67;5.00;;;;;-147.17;100.00;49887.34;5072350;28;51238;-66
2021/11/05 09:47:38;;;;;;;;;5.00;5.00;;;;;-147.17;100.00;49952.28;5071663;28;52302;-65
2021/11/05 09:50:04;;;;;;;;;4.67;3.67;;;;;-147.17;100.00;49958.19;5071308;28;50876;-66
2021/11/05 09:52:30;;;;;;;;;5.67;5.67;;;;;-147.17;100.00;49962.13;5071854;28;50962;-66
2021/11/05 09:54:58;;;;;;;;;4.67;4.00;;;;;-147.17;100.00;49938.50;5071479;28;51034;-66
2021/11/05 09:57:24;;;;;;;;;5.67;5.00;;;;;-147.17;100.00;49942.44;5053666;28;54211;-67
2021/11/05 09:59:49;;;;;;;;;5.67;5.00;;;;;-147.17;100.00;49914.91;5061860;28;51521;-67
2021/11/05 10:02:15;;;;;;;;;5.33;5.00;;;;;-147.17;100.00;49905.06;5060615;28;51401;-66
2021/11/05 10:04:41;;;;;;;;;5.00;4.00;;;;;-147.17;100.00;49942.44;5072277;28;51227;-66
2021/11/05 10:07:09;;;;;;;;;4.00;3.00;;;;;-147.17;100.00;49938.50;5075542;28;51219;-67
2021/11/05 10:09:43;;;;;;;;;6.00;6.00;;;;;-147.17;100.00;49954.25;5074873;28;50863;-67
2021/11/05 10:12:14;;;;;;;;;13.33;12.00;;;;;-147.17;100.00;49966.06;5075118;28;50833;-67
2021/11/05 10:14:42;;;;;;;;;10.33;8.00;;;;;-147.17;100.00;49970.00;5075200;28;51391;-67
2021/11/05 10:17:11;;;;;;;;;5.00;4.33;;;;;-147.17;100.00;50001.50;5075106;28;50937;-66
2021/11/05 10:20:02;;;;;;;;;6.33;4.33;;;;;-147.17;100.00;50029.06;5074728;28;51122;-66
2021/11/05 10:22:50;;;;;;;;;7.33;6.67;;;;;-147.17;100.00;49997.56;5076203;28;50970;-67
2021/11/05 10:25:25;;;;;;;;;5.00;5.00;;;;;-147.17;100.00;49983.78;5075721;28;50967;-67
2021/11/05 10:28:01;;;;;;;;;6.00;5.67;;;;;-147.17;100.00;49981.81;5076292;28;52244;-67
2021/11/05 10:30:28;;;;;;;;;5.00;5.00;;;;;-147.17;100.00;49934.56;5064362;28;51090;-66
2021/11/05 10:32:58;;;;;;;;;5.00;5.00;;;;;-147.17;100.00;49958.19;5060071;28;51211;-66
2021/11/05 10:35:24;;;;;;;;;12.67;12.67;;;;;-147.17;100.00;49936.53;5075773;28;50892;-66
2021/11/05 10:38:00;;;;;;;;;8.00;7.67;;;;;-147.17;100.00;49989.69;5056153;28;51032;-67
2021/11/05 10:40:37;;;;;;;;;6.67;6.67;;;;;-147.17;100.00;49975.91;5073671;28;51200;-67
2021/11/05 10:43:04;;;;;;;;;5.67;4.67;;;;;-147.17;100.00;49995.59;5045111;28;51292;-67
2021/11/05 10:45:30;;;;;;;;;5.67;5.67;;;;;-147.17;100.00;49962.13;5072550;28;51106;-66
2021/11/05 10:47:57;;;;;;;;;5.67;5.67;;;;;-147.17;100.00;49989.69;5056458;28;54100;-66
2021/11/05 10:50:33;;;;;;;;;3.33;3.33;;;;;-147.17;100.00;49942.44;5066593;28;51070;-66
2021/11/05 10:53:06;;;;;;;;;5.00;5.00;;;;;-147.17;100.00;50005.44;5068913;28;51176;-66
2021/11/05 10:55:37;;;;;;;;;8.00;8.00;;;;;-147.17;100.00;50007.41;5074079;28;51311;-66
2021/11/05 10:58:03;;;;;;;;;4.67;4.00;;;;;-147.17;100.00;49985.75;5074484;28;51886;-67
2021/11/05 11:00:30;;;;;;;;;4.67;4.00;;;;;-147.17;100.00;50001.50;5074447;28;50991;-66
2021/11/05 11:03:07;;;;;;;;;9.67;7.33;;;;;-147.17;100.00;49975.91;5073911;28;51128;-66
2021/11/05 11:05:34;;;;;;;;;5.00;5.00;;;;;-147.17;100.00;49966.06;5074586;28;51110;-66